createdAt,value
2018-07-07T00:00:14.335Z,16.68
2018-07-07T00:01:14.516Z,16.75
2018-07-07T00:02:14.697Z,16.69
2018-07-07T00:03:14.876Z,16.65
2018-07-07T00:04:15.068Z,16.57
2018-07-07T00:05:15.243Z,16.51
2018-07-07T00:06:15.423Z,16.64
2018-07-07T00:07:15.605Z,16.60
2018-07-07T00:08:15.785Z,16.28
2018-07-07T00:09:15.966Z,16.16
2018-07-07T00:10:16.143Z,16.15
2018-07-07T00:11:16.324Z,16.02
2018-07-07T00:12:16.504Z,15.97
2018-07-07T00:14:16.872Z,15.76
2018-07-07T00:15:17.048Z,15.80
2018-07-07T00:16:17.235Z,15.95
2018-07-07T00:17:17.407Z,15.91
2018-07-07T00:18:17.588Z,15.98
2018-07-07T00:19:17.768Z,15.98
2018-07-07T00:20:17.953Z,16.04
2018-07-07T00:21:18.128Z,16.05
2018-07-07T00:22:18.304Z,16.10
2018-07-07T00:23:18.483Z,16.21
2018-07-07T00:24:18.692Z,16.31
2018-07-07T00:25:18.847Z,16.21
2018-07-07T00:26:19.024Z,16.23
2018-07-07T00:27:19.327Z,16.17
2018-07-07T00:28:19.392Z,16.12
2018-07-07T00:29:19.571Z,16.09
2018-07-07T00:30:19.747Z,16.05
2018-07-07T00:31:19.921Z,16.16
2018-07-07T00:32:20.102Z,16.15
2018-07-07T00:33:20.281Z,16.21
2018-07-07T00:34:20.466Z,16.21
2018-07-07T00:35:20.644Z,16.13
2018-07-07T00:36:20.822Z,16.16
2018-07-07T00:37:20.996Z,16.02
2018-07-07T00:38:21.180Z,15.97
2018-07-07T00:39:21.364Z,15.77
2018-07-07T00:40:21.541Z,15.51
2018-07-07T00:41:21.725Z,15.64
2018-07-07T00:42:21.908Z,15.64
2018-07-07T00:43:22.088Z,15.64
2018-07-07T00:44:22.268Z,15.67
2018-07-07T00:45:22.447Z,15.75
2018-07-07T00:46:22.622Z,15.59
2018-07-07T00:47:22.799Z,15.39
2018-07-07T00:48:22.979Z,15.37
2018-07-07T00:49:23.160Z,15.35
2018-07-07T00:50:23.356Z,15.33
2018-07-07T00:51:23.523Z,15.27
2018-07-07T00:52:23.704Z,15.28
2018-07-07T00:53:23.882Z,15.31
2018-07-07T00:54:24.111Z,15.27
2018-07-07T00:55:24.250Z,15.29
2018-07-07T00:56:24.419Z,15.29
2018-07-07T00:57:24.597Z,15.33
2018-07-07T00:58:24.807Z,15.35
2018-07-07T00:59:24.972Z,15.29
2018-07-07T01:00:25.143Z,15.37
2018-07-07T01:01:25.324Z,15.27
2018-07-07T01:02:25.506Z,15.36
2018-07-07T01:03:25.683Z,15.28
2018-07-07T01:04:25.868Z,15.36
2018-07-07T01:05:26.064Z,15.44
2018-07-07T01:06:26.237Z,15.43
2018-07-07T01:07:26.416Z,15.39
2018-07-07T01:08:26.592Z,15.36
2018-07-07T01:09:26.800Z,15.43
2018-07-07T01:10:26.957Z,15.22
2018-07-07T01:11:27.133Z,15.31
2018-07-07T01:12:27.313Z,15.40
2018-07-07T01:13:27.500Z,15.28
2018-07-07T01:14:27.728Z,15.35
2018-07-07T01:15:27.857Z,15.31
2018-07-07T01:16:28.031Z,15.33
2018-07-07T01:17:28.214Z,15.46
2018-07-07T01:18:28.433Z,15.36
2018-07-07T01:19:28.572Z,15.49
2018-07-07T01:20:28.753Z,15.46
2018-07-07T01:21:28.934Z,15.24
2018-07-07T01:22:29.119Z,15.36
2018-07-07T01:23:29.293Z,15.29
2018-07-07T01:24:29.472Z,15.25
2018-07-07T01:25:29.687Z,15.28
2018-07-07T01:26:29.824Z,15.22
2018-07-07T01:27:30.007Z,15.17
2018-07-07T01:28:30.186Z,15.00
2018-07-07T01:29:30.363Z,14.97
2018-07-07T01:30:30.545Z,14.94
2018-07-07T01:31:30.728Z,14.89
2018-07-07T01:32:30.907Z,14.94
2018-07-07T01:33:31.085Z,14.91
2018-07-07T01:34:31.266Z,14.86
2018-07-07T01:35:31.447Z,14.82
2018-07-07T01:36:31.628Z,14.81
2018-07-07T01:37:31.807Z,14.59
2018-07-07T01:38:31.984Z,14.40
2018-07-07T01:39:32.171Z,14.44
2018-07-07T01:40:32.348Z,14.53
2018-07-07T01:41:32.529Z,14.48
2018-07-07T01:42:32.714Z,14.50
2018-07-07T01:43:32.889Z,14.50
2018-07-07T01:44:33.068Z,14.65
2018-07-07T01:45:33.261Z,14.54
2018-07-07T01:46:33.435Z,14.58
2018-07-07T01:47:33.617Z,14.63
2018-07-07T01:48:33.847Z,14.68
2018-07-07T01:49:33.972Z,14.65
2018-07-07T01:50:34.158Z,14.47
2018-07-07T01:51:34.368Z,14.36
2018-07-07T01:52:34.511Z,14.45
2018-07-07T01:53:34.696Z,14.50
2018-07-07T01:54:34.868Z,14.43
2018-07-07T01:55:35.041Z,14.36
2018-07-07T01:56:35.215Z,14.22
2018-07-07T01:57:35.393Z,14.14
2018-07-07T01:58:35.577Z,14.28
2018-07-07T01:59:35.753Z,14.35
2018-07-07T02:00:35.950Z,14.32
2018-07-07T02:01:36.121Z,14.32
2018-07-07T02:02:36.302Z,14.33
2018-07-07T02:03:36.481Z,14.17
2018-07-07T02:04:36.659Z,14.17
2018-07-07T02:05:36.842Z,14.20
2018-07-07T02:06:37.023Z,14.11
2018-07-07T02:07:37.201Z,14.07
2018-07-07T02:08:37.380Z,14.15
2018-07-07T02:09:37.560Z,14.15
2018-07-07T02:10:37.745Z,14.14
2018-07-07T02:11:37.923Z,14.14
2018-07-07T02:12:38.101Z,14.03
2018-07-07T02:13:38.280Z,14.08
2018-07-07T02:14:38.459Z,13.99
2018-07-07T02:15:38.670Z,14.10
2018-07-07T02:16:38.816Z,14.11
2018-07-07T02:17:38.995Z,14.12
2018-07-07T02:18:39.172Z,14.14
2018-07-07T02:19:39.348Z,14.28
2018-07-07T02:20:39.525Z,14.14
2018-07-07T02:21:39.713Z,14.18
2018-07-07T02:22:39.892Z,14.28
2018-07-07T02:23:40.075Z,14.23
2018-07-07T02:24:40.250Z,14.23
2018-07-07T02:25:40.441Z,14.10
2018-07-07T02:26:40.611Z,13.96
2018-07-07T02:27:40.786Z,13.89
2018-07-07T02:28:40.965Z,13.93
2018-07-07T02:29:41.155Z,13.99
2018-07-07T02:30:41.325Z,14.00
2018-07-07T02:31:41.515Z,14.15
2018-07-07T02:32:41.679Z,13.89
2018-07-07T02:33:41.851Z,14.04
2018-07-07T02:34:42.031Z,14.07
2018-07-07T02:35:42.209Z,14.15
2018-07-07T02:36:42.399Z,14.10
2018-07-07T02:37:42.572Z,14.15
2018-07-07T02:38:42.751Z,14.20
2018-07-07T02:39:42.931Z,14.28
2018-07-07T02:40:43.109Z,14.18
2018-07-07T02:41:43.288Z,14.04
2018-07-07T02:42:43.461Z,14.08
2018-07-07T02:43:43.636Z,14.07
2018-07-07T02:44:43.815Z,14.07
2018-07-07T02:45:43.993Z,14.07
2018-07-07T02:47:44.350Z,13.77
2018-07-07T02:48:44.521Z,13.74
2018-07-07T02:49:44.692Z,13.70
2018-07-07T02:50:44.888Z,13.83
2018-07-07T02:51:45.057Z,13.77
2018-07-07T02:52:45.238Z,13.79
2018-07-07T02:53:45.436Z,13.77
2018-07-07T02:54:46.144Z,13.78
2018-07-07T02:55:45.791Z,13.79
2018-07-07T02:56:46.642Z,13.92
2018-07-07T02:57:46.133Z,13.97
2018-07-07T02:58:46.312Z,13.89
2018-07-07T02:59:46.488Z,13.90
2018-07-07T03:00:46.662Z,13.89
2018-07-07T03:01:46.846Z,13.93
2018-07-07T03:02:47.019Z,13.89
2018-07-07T03:03:47.281Z,13.87
2018-07-07T03:04:47.375Z,13.89
2018-07-07T03:05:47.557Z,13.92
2018-07-07T03:06:47.731Z,13.97
2018-07-07T03:07:47.909Z,13.87
2018-07-07T03:08:48.091Z,13.85
2018-07-07T03:09:48.260Z,13.83
2018-07-07T03:10:48.441Z,13.79
2018-07-07T03:11:48.622Z,13.75
2018-07-07T03:12:48.794Z,13.68
2018-07-07T03:13:48.972Z,13.78
2018-07-07T03:14:49.161Z,13.77
2018-07-07T03:15:49.321Z,13.67
2018-07-07T03:16:49.506Z,13.72
2018-07-07T03:17:49.689Z,13.74
2018-07-07T03:18:49.867Z,13.57
2018-07-07T03:19:50.040Z,13.65
2018-07-07T03:20:50.222Z,13.57
2018-07-07T03:21:50.389Z,13.56
2018-07-07T03:22:50.574Z,13.50
2018-07-07T03:23:50.749Z,13.57
2018-07-07T03:24:50.912Z,13.46
2018-07-07T03:25:51.073Z,13.50
2018-07-07T03:26:51.258Z,13.50
2018-07-07T03:27:51.428Z,13.38
2018-07-07T03:28:51.611Z,13.46
2018-07-07T03:29:51.806Z,13.46
2018-07-07T03:30:51.973Z,13.53
2018-07-07T03:31:52.152Z,13.56
2018-07-07T03:32:52.329Z,13.56
2018-07-07T03:33:52.509Z,13.59
2018-07-07T03:34:52.735Z,13.60
2018-07-07T03:35:52.882Z,13.54
2018-07-07T03:36:53.090Z,13.72
2018-07-07T03:37:53.244Z,13.65
2018-07-07T03:38:53.426Z,13.67
2018-07-07T03:39:53.601Z,13.71
2018-07-07T03:40:53.784Z,13.62
2018-07-07T03:41:53.960Z,13.60
2018-07-07T03:42:54.147Z,13.63
2018-07-07T03:43:54.353Z,13.67
2018-07-07T03:44:54.492Z,13.65
2018-07-07T03:45:54.665Z,13.72
2018-07-07T03:46:54.849Z,13.67
2018-07-07T03:47:55.033Z,13.71
2018-07-07T03:48:55.212Z,13.70
2018-07-07T03:49:55.390Z,13.70
2018-07-07T03:50:55.823Z,13.75
2018-07-07T03:51:55.750Z,13.77
2018-07-07T03:52:55.939Z,13.70
2018-07-07T03:53:56.091Z,13.70
2018-07-07T03:54:56.277Z,13.72
2018-07-07T03:55:56.457Z,13.67
2018-07-07T03:56:56.636Z,13.63
2018-07-07T03:57:56.823Z,13.57
2018-07-07T03:58:57.035Z,13.42
2018-07-07T03:59:57.180Z,13.52
2018-07-07T04:00:57.363Z,13.59
2018-07-07T04:01:57.541Z,13.70
2018-07-07T04:02:57.716Z,13.72
2018-07-07T04:03:57.895Z,13.83
2018-07-07T04:04:58.073Z,13.74
2018-07-07T04:05:58.255Z,13.85
2018-07-07T04:06:58.433Z,13.96
2018-07-07T04:07:58.616Z,13.86
2018-07-07T04:08:58.810Z,13.92
2018-07-07T04:09:58.970Z,13.96
2018-07-07T04:10:59.147Z,14.03
2018-07-07T04:11:59.331Z,14.14
2018-07-07T04:12:59.510Z,14.22
2018-07-07T04:13:59.684Z,14.32
2018-07-07T04:14:59.866Z,14.32
2018-07-07T04:16:00.046Z,14.33
2018-07-07T04:17:00.231Z,14.29
2018-07-07T04:18:00.421Z,14.28
2018-07-07T04:19:00.588Z,13.99
2018-07-07T04:20:00.778Z,13.95
2018-07-07T04:21:00.947Z,13.95
2018-07-07T04:22:01.119Z,14.10
2018-07-07T04:23:01.304Z,14.12
2018-07-07T04:24:01.477Z,14.10
2018-07-07T04:25:01.665Z,13.90
2018-07-07T04:26:01.844Z,13.95
2018-07-07T04:27:02.025Z,13.86
2018-07-07T04:29:02.371Z,13.97
2018-07-07T04:30:02.545Z,14.04
2018-07-07T04:31:02.730Z,14.17
2018-07-07T04:32:02.908Z,14.26
2018-07-07T04:33:03.091Z,14.28
2018-07-07T04:34:03.270Z,14.29
2018-07-07T04:35:03.449Z,14.33
2018-07-07T04:36:03.634Z,14.30
2018-07-07T04:37:03.817Z,14.43
2018-07-07T04:38:03.998Z,14.54
2018-07-07T04:39:04.164Z,14.53
2018-07-07T04:40:04.345Z,14.48
2018-07-07T04:41:04.525Z,14.53
2018-07-07T04:42:04.703Z,14.45
2018-07-07T04:43:04.885Z,14.45
2018-07-07T04:44:05.069Z,14.44
2018-07-07T04:45:05.249Z,14.40
2018-07-07T04:46:05.445Z,14.37
2018-07-07T04:47:05.598Z,14.37
2018-07-07T04:48:05.780Z,14.45
2018-07-07T04:49:05.959Z,14.51
2018-07-07T04:50:06.137Z,14.50
2018-07-07T04:51:06.316Z,14.48
2018-07-07T04:52:06.500Z,14.36
2018-07-07T04:53:06.693Z,14.45
2018-07-07T04:54:06.859Z,14.30
2018-07-07T04:55:07.040Z,14.44
2018-07-07T04:56:07.224Z,14.60
2018-07-07T04:57:07.702Z,14.78
2018-07-07T04:58:07.577Z,14.92
2018-07-07T04:59:07.765Z,15.03
2018-07-07T05:00:07.939Z,14.91
2018-07-07T05:01:08.118Z,14.94
2018-07-07T05:02:08.598Z,15.06
2018-07-07T05:03:08.504Z,15.02
2018-07-07T05:04:08.667Z,15.09
2018-07-07T05:05:08.854Z,14.85
2018-07-07T05:06:09.033Z,14.63
2018-07-07T05:07:09.217Z,14.72
2018-07-07T05:08:09.391Z,14.84
2018-07-07T05:09:09.578Z,14.85
2018-07-07T05:10:09.753Z,14.85
2018-07-07T05:11:09.931Z,14.89
2018-07-07T05:12:10.399Z,14.94
2018-07-07T05:13:10.295Z,14.97
2018-07-07T05:14:10.477Z,14.97
2018-07-07T05:15:10.656Z,14.97
2018-07-07T05:16:10.832Z,14.73
2018-07-07T05:17:11.039Z,14.84
2018-07-07T05:18:11.199Z,14.81
2018-07-07T05:19:11.376Z,14.88
2018-07-07T05:20:11.547Z,14.96
2018-07-07T05:21:11.746Z,14.91
2018-07-07T05:22:11.920Z,14.69
2018-07-07T05:23:12.102Z,14.72
2018-07-07T05:24:12.277Z,14.86
2018-07-07T05:25:12.460Z,14.63
2018-07-07T05:26:12.658Z,14.60
2018-07-07T05:27:12.828Z,14.79
2018-07-07T05:28:13.013Z,14.88
2018-07-07T05:29:13.187Z,15.03
2018-07-07T05:30:13.371Z,15.07
2018-07-07T05:31:13.555Z,15.18
2018-07-07T05:32:13.743Z,15.24
2018-07-07T05:33:13.914Z,15.39
2018-07-07T05:34:14.102Z,15.40
2018-07-07T05:35:14.281Z,15.42
2018-07-07T05:36:14.468Z,15.55
2018-07-07T05:37:14.693Z,15.65
2018-07-07T05:38:14.825Z,15.65
2018-07-07T05:39:15.007Z,15.61
2018-07-07T05:40:15.194Z,15.62
2018-07-07T05:41:15.370Z,15.77
2018-07-07T05:42:15.566Z,15.76
2018-07-07T05:43:15.730Z,15.83
2018-07-07T05:44:15.913Z,15.82
2018-07-07T05:45:16.094Z,15.83
2018-07-07T05:46:16.276Z,15.86
2018-07-07T05:47:16.451Z,15.94
2018-07-07T05:49:16.818Z,16.13
2018-07-07T05:50:16.996Z,16.12
2018-07-07T05:51:17.186Z,16.21
2018-07-07T05:52:17.370Z,16.24
2018-07-07T05:53:17.794Z,16.26
2018-07-07T05:54:17.735Z,16.26
2018-07-07T05:55:17.917Z,16.32
2018-07-07T05:56:18.105Z,16.32
2018-07-07T05:57:18.337Z,16.36
2018-07-07T05:58:18.463Z,16.26
2018-07-07T05:59:18.638Z,16.23
2018-07-07T06:00:18.829Z,16.26
2018-07-07T06:01:18.999Z,16.36
2018-07-07T06:02:19.183Z,16.29
2018-07-07T06:03:19.366Z,16.36
2018-07-07T06:04:19.545Z,16.39
2018-07-07T06:05:19.728Z,16.26
2018-07-07T06:06:19.912Z,16.32
2018-07-07T06:07:20.097Z,16.32
2018-07-07T06:08:20.275Z,16.33
2018-07-07T06:09:20.464Z,16.29
2018-07-07T06:10:20.880Z,16.36
2018-07-07T06:11:20.856Z,16.21
2018-07-07T06:12:20.987Z,16.32
2018-07-07T06:13:21.168Z,16.36
2018-07-07T06:14:21.391Z,16.50
2018-07-07T06:15:21.526Z,16.54
2018-07-07T06:16:21.720Z,16.68
2018-07-07T06:17:21.892Z,16.75
2018-07-07T06:18:22.343Z,16.83
2018-07-07T06:19:22.255Z,16.93
2018-07-07T06:20:22.442Z,16.97
2018-07-07T06:21:22.629Z,17.12
2018-07-07T06:22:22.805Z,17.09
2018-07-07T06:23:22.989Z,17.05
2018-07-07T06:24:23.167Z,17.14
2018-07-07T06:25:23.351Z,17.16
2018-07-07T06:26:23.633Z,17.20
2018-07-07T06:27:23.955Z,17.48
2018-07-07T06:28:23.893Z,17.57
2018-07-07T06:29:24.082Z,17.59
2018-07-07T06:30:24.270Z,17.70
2018-07-07T06:31:24.446Z,17.95
2018-07-07T06:32:24.628Z,17.85
2018-07-07T06:33:24.806Z,17.72
2018-07-07T06:34:24.991Z,17.71
2018-07-07T06:35:25.180Z,17.82
2018-07-07T06:36:25.354Z,17.95
2018-07-07T06:37:25.624Z,18.07
2018-07-07T06:38:25.720Z,18.29
2018-07-07T06:39:25.891Z,18.34
2018-07-07T06:40:26.081Z,18.47
2018-07-07T06:41:26.268Z,18.60
2018-07-07T06:42:26.446Z,18.68
2018-07-07T06:43:26.630Z,18.78
2018-07-07T06:44:27.052Z,18.55
2018-07-07T06:45:26.989Z,18.83
2018-07-07T06:46:27.198Z,19.07
2018-07-07T06:47:27.358Z,19.30
2018-07-07T06:48:27.537Z,19.41
2018-07-07T06:49:27.728Z,19.27
2018-07-07T06:50:27.910Z,19.44
2018-07-07T06:51:28.095Z,19.39
2018-07-07T06:52:28.274Z,19.76
2018-07-07T06:53:28.454Z,19.96
2018-07-07T06:54:28.637Z,20.11
2018-07-07T06:55:28.806Z,20.39
2018-07-07T06:56:28.999Z,20.41
2018-07-07T06:57:29.179Z,20.58
2018-07-07T06:58:29.363Z,20.66
2018-07-07T06:59:29.550Z,20.11
2018-07-07T07:00:29.732Z,19.74
2018-07-07T07:01:29.932Z,19.77
2018-07-07T07:02:30.097Z,19.86
2018-07-07T07:03:30.296Z,20.09
2018-07-07T07:04:30.475Z,20.52
2018-07-07T07:05:30.639Z,21.29
2018-07-07T07:06:30.839Z,21.61
2018-07-07T07:07:31.012Z,21.96
2018-07-07T07:08:31.203Z,22.69
2018-07-07T07:09:31.382Z,23.00
2018-07-07T07:10:31.571Z,23.10
2018-07-07T07:11:31.750Z,23.73
2018-07-07T07:12:31.942Z,23.84
2018-07-07T07:13:32.126Z,23.99
2018-07-07T07:14:32.317Z,24.35
2018-07-07T07:15:32.508Z,23.78
2018-07-07T07:16:32.690Z,23.10
2018-07-07T07:17:32.879Z,22.00
2018-07-07T07:18:33.070Z,22.32
2018-07-07T07:19:33.253Z,22.66
2018-07-07T07:20:33.452Z,22.48
2018-07-07T07:21:33.623Z,22.98
2018-07-07T07:22:33.817Z,23.48
2018-07-07T07:23:34.004Z,23.91
2018-07-07T07:24:34.189Z,23.87
2018-07-07T07:25:34.371Z,24.02
2018-07-07T07:26:34.564Z,23.88
2018-07-07T07:27:34.748Z,23.91
2018-07-07T07:28:34.933Z,23.83
2018-07-07T07:29:35.113Z,24.26
2018-07-07T07:30:35.317Z,24.50
2018-07-07T07:31:35.486Z,24.68
2018-07-07T07:32:35.675Z,24.54
2018-07-07T07:33:35.865Z,24.55
2018-07-07T07:34:36.059Z,24.55
2018-07-07T07:35:36.230Z,24.81
2018-07-07T07:36:36.423Z,25.08
2018-07-07T07:37:36.607Z,25.10
2018-07-07T07:38:36.792Z,25.35
2018-07-07T07:39:36.978Z,25.55
2018-07-07T07:40:37.172Z,25.66
2018-07-07T07:41:37.357Z,25.73
2018-07-07T07:42:37.553Z,26.18
2018-07-07T07:43:37.743Z,26.00
2018-07-07T07:44:37.937Z,26.09
2018-07-07T07:45:38.128Z,26.19
2018-07-07T07:46:38.314Z,26.16
2018-07-07T07:47:38.500Z,26.13
2018-07-07T07:48:38.696Z,26.28
2018-07-07T07:49:38.883Z,26.40
2018-07-07T07:50:39.066Z,26.77
2018-07-07T07:51:39.257Z,26.62
2018-07-07T07:52:39.500Z,26.81
2018-07-07T07:53:39.660Z,26.26
2018-07-07T07:54:39.851Z,26.21
2018-07-07T07:55:40.049Z,26.48
2018-07-07T07:56:40.233Z,26.65
2018-07-07T07:57:40.414Z,26.07
2018-07-07T07:58:40.606Z,25.66
2018-07-07T07:59:40.800Z,25.85
2018-07-07T08:00:40.996Z,25.87
2018-07-07T08:01:41.162Z,26.02
2018-07-07T08:02:41.349Z,26.15
2018-07-07T08:03:41.538Z,25.66
2018-07-07T08:04:41.757Z,26.00
2018-07-07T08:05:41.919Z,26.25
2018-07-07T08:06:42.087Z,26.66
2018-07-07T08:07:42.281Z,26.71
2018-07-07T08:08:42.459Z,26.93
2018-07-07T08:09:42.635Z,26.45
2018-07-07T08:10:42.821Z,25.96
2018-07-07T08:11:43.010Z,26.37
2018-07-07T08:12:43.196Z,26.62
2018-07-07T08:13:43.384Z,26.90
2018-07-07T08:14:43.813Z,26.60
2018-07-07T08:15:43.772Z,26.66
2018-07-07T08:16:43.942Z,26.21
2018-07-07T08:17:44.132Z,25.85
2018-07-07T08:18:44.309Z,25.98
2018-07-07T08:19:44.473Z,26.33
2018-07-07T08:20:44.655Z,26.22
2018-07-07T08:21:44.831Z,26.33
2018-07-07T08:22:45.084Z,26.34
2018-07-07T08:23:45.217Z,26.52
2018-07-07T08:24:45.415Z,26.23
2018-07-07T08:25:45.593Z,26.45
2018-07-07T08:26:45.760Z,26.58
2018-07-07T08:27:45.962Z,26.70
2018-07-07T08:28:46.146Z,26.78
2018-07-07T08:29:46.341Z,26.33
2018-07-07T08:30:46.502Z,25.85
2018-07-07T08:31:46.692Z,25.98
2018-07-07T08:32:46.873Z,26.07
2018-07-07T08:33:47.056Z,26.43
2018-07-07T08:34:47.231Z,26.95
2018-07-07T08:35:47.423Z,26.84
2018-07-07T08:36:47.613Z,26.97
2018-07-07T08:37:47.776Z,27.21
2018-07-07T08:38:47.950Z,26.88
2018-07-07T08:39:48.124Z,26.60
2018-07-07T08:40:48.322Z,26.71
2018-07-07T08:41:48.756Z,26.59
2018-07-07T08:42:48.631Z,26.34
2018-07-07T08:43:48.829Z,25.96
2018-07-07T08:44:48.997Z,26.47
2018-07-07T08:45:49.183Z,26.70
2018-07-07T08:46:49.368Z,26.77
2018-07-07T08:47:49.542Z,26.97
2018-07-07T08:48:49.975Z,27.02
2018-07-07T08:49:49.908Z,26.59
2018-07-07T08:50:50.088Z,26.36
2018-07-07T08:51:50.274Z,26.52
2018-07-07T08:52:50.439Z,26.83
2018-07-07T08:53:50.612Z,26.80
2018-07-07T08:54:50.816Z,26.59
2018-07-07T08:55:51.019Z,26.47
2018-07-07T08:56:51.187Z,26.16
2018-07-07T08:57:51.373Z,26.16
2018-07-07T08:58:51.566Z,26.43
2018-07-07T08:59:51.754Z,26.45
2018-07-07T09:00:51.939Z,26.41
2018-07-07T09:01:52.133Z,26.45
2018-07-07T09:02:52.313Z,26.55
2018-07-07T09:03:52.506Z,26.78
2018-07-07T09:04:52.696Z,26.92
2018-07-07T09:05:52.885Z,27.03
2018-07-07T09:06:53.070Z,27.26
2018-07-07T09:07:53.241Z,27.30
2018-07-07T09:08:53.413Z,27.42
2018-07-07T09:09:53.622Z,27.55
2018-07-07T09:10:53.806Z,27.21
2018-07-07T09:11:53.958Z,27.47
2018-07-07T09:12:54.146Z,27.49
2018-07-07T09:13:54.335Z,26.99
2018-07-07T09:14:54.517Z,27.21
2018-07-07T09:15:54.678Z,27.39
2018-07-07T09:16:54.874Z,27.05
2018-07-07T09:17:55.034Z,27.14
2018-07-07T09:18:55.213Z,27.20
2018-07-07T09:19:55.388Z,27.20
2018-07-07T09:20:55.574Z,27.10
2018-07-07T09:21:55.764Z,26.95
2018-07-07T09:22:55.950Z,27.25
2018-07-07T09:23:56.125Z,27.20
2018-07-07T09:24:56.307Z,27.14
2018-07-07T09:25:56.491Z,27.11
2018-07-07T09:26:56.669Z,26.89
2018-07-07T09:27:56.842Z,26.52
2018-07-07T09:28:57.022Z,25.99
2018-07-07T09:29:57.206Z,26.40
2018-07-07T09:30:57.462Z,26.65
2018-07-07T09:31:57.558Z,26.60
2018-07-07T09:32:57.732Z,26.71
2018-07-07T09:33:57.915Z,26.88
2018-07-07T09:34:58.116Z,26.88
2018-07-07T09:35:58.268Z,26.90
2018-07-07T09:36:58.448Z,26.80
2018-07-07T09:37:58.631Z,26.84
2018-07-07T09:38:58.811Z,27.00
2018-07-07T09:39:58.998Z,27.00
2018-07-07T09:40:59.164Z,27.14
2018-07-07T09:41:59.344Z,27.18
2018-07-07T09:42:59.503Z,27.21
2018-07-07T09:43:59.726Z,27.18
2018-07-07T09:44:59.853Z,27.10
2018-07-07T09:46:00.041Z,27.35
2018-07-07T09:47:00.226Z,27.54
2018-07-07T09:48:00.418Z,27.82
2018-07-07T09:49:00.598Z,27.85
2018-07-07T09:50:00.791Z,27.85
2018-07-07T09:51:00.963Z,27.74
2018-07-07T09:52:01.161Z,27.92
2018-07-07T09:53:01.360Z,27.78
2018-07-07T09:54:01.522Z,27.58
2018-07-07T09:55:01.693Z,27.59
2018-07-07T09:56:01.901Z,27.78
2018-07-07T09:57:02.336Z,27.33
2018-07-07T09:58:02.268Z,27.29
2018-07-07T09:59:02.486Z,27.27
2018-07-07T10:00:02.716Z,27.14
2018-07-07T10:01:02.899Z,26.96
2018-07-07T10:02:03.104Z,26.99
2018-07-07T10:03:03.291Z,27.03
2018-07-07T10:04:03.478Z,27.29
2018-07-07T10:05:03.685Z,27.58
2018-07-07T10:06:03.855Z,27.39
2018-07-07T10:07:04.023Z,27.36
2018-07-07T10:08:04.196Z,27.07
2018-07-07T10:09:04.370Z,27.22
2018-07-07T10:10:04.555Z,27.64
2018-07-07T10:11:04.729Z,27.47
2018-07-07T10:12:04.916Z,27.73
2018-07-07T10:13:05.081Z,27.54
2018-07-07T10:14:05.254Z,27.15
2018-07-07T10:15:05.438Z,26.88
2018-07-07T10:16:05.603Z,26.85
2018-07-07T10:17:05.791Z,26.99
2018-07-07T10:18:05.980Z,26.93
2018-07-07T10:19:06.128Z,26.65
2018-07-07T10:20:06.326Z,26.59
2018-07-07T10:21:06.506Z,26.96
2018-07-07T10:22:06.692Z,27.02
2018-07-07T10:23:06.869Z,27.15
2018-07-07T10:24:07.044Z,27.55
2018-07-07T10:25:07.224Z,27.78
2018-07-07T10:26:07.408Z,27.80
2018-07-07T10:27:07.593Z,27.45
2018-07-07T10:28:07.784Z,27.45
2018-07-07T10:29:07.964Z,27.63
2018-07-07T10:30:08.155Z,27.90
2018-07-07T10:31:08.368Z,28.00
2018-07-07T10:32:08.519Z,28.08
2018-07-07T10:33:08.685Z,27.90
2018-07-07T10:34:08.867Z,27.93
2018-07-07T10:35:09.042Z,27.59
2018-07-07T10:36:09.228Z,27.51
2018-07-07T10:37:09.409Z,27.67
2018-07-07T10:38:09.625Z,27.77
2018-07-07T10:39:09.774Z,27.86
2018-07-07T10:40:09.958Z,27.78
2018-07-07T10:41:10.159Z,27.58
2018-07-07T10:42:10.332Z,27.52
2018-07-07T10:43:10.515Z,27.60
2018-07-07T10:44:10.701Z,27.52
2018-07-07T10:45:10.900Z,27.45
2018-07-07T10:46:11.137Z,27.75
2018-07-07T10:47:11.254Z,27.89
2018-07-07T10:48:11.433Z,27.55
2018-07-07T10:49:11.625Z,27.39
2018-07-07T10:50:11.852Z,27.39
2018-07-07T10:51:12.024Z,27.47
2018-07-07T10:52:12.183Z,27.48
2018-07-07T10:53:12.353Z,27.29
2018-07-07T10:54:12.555Z,27.52
2018-07-07T10:55:12.719Z,27.54
2018-07-07T10:56:12.872Z,27.90
2018-07-07T10:57:13.127Z,27.89
2018-07-07T10:58:13.332Z,27.87
2018-07-07T10:59:13.541Z,27.65
2018-07-07T11:00:13.736Z,27.42
2018-07-07T11:01:13.912Z,27.44
2018-07-07T11:02:14.093Z,27.52
2018-07-07T11:03:14.280Z,27.60
2018-07-07T11:04:14.599Z,27.74
2018-07-07T11:05:14.644Z,27.86
2018-07-07T11:06:14.824Z,27.58
2018-07-07T11:07:14.997Z,27.40
2018-07-07T11:08:15.204Z,27.27
2018-07-07T11:09:15.349Z,27.21
2018-07-07T11:10:15.528Z,27.37
2018-07-07T11:11:15.717Z,27.59
2018-07-07T11:12:15.905Z,27.87
2018-07-07T11:13:16.088Z,27.96
2018-07-07T11:14:16.271Z,27.89
2018-07-07T11:15:16.443Z,27.40
2018-07-07T11:16:16.859Z,27.32
2018-07-07T11:17:16.801Z,27.36
2018-07-07T11:18:16.984Z,27.75
2018-07-07T11:19:17.173Z,27.89
2018-07-07T11:20:17.353Z,27.90
2018-07-07T11:21:17.528Z,27.93
2018-07-07T11:22:17.720Z,28.02
2018-07-07T11:23:17.901Z,28.14
2018-07-07T11:24:18.058Z,27.98
2018-07-07T11:25:18.235Z,28.04
2018-07-07T11:26:18.412Z,28.15
2018-07-07T11:27:18.602Z,28.15
2018-07-07T11:28:18.771Z,28.30
2018-07-07T11:29:18.979Z,28.27
2018-07-07T11:30:19.152Z,28.23
2018-07-07T11:31:19.336Z,28.14
2018-07-07T11:32:19.519Z,28.05
2018-07-07T11:33:19.696Z,27.92
2018-07-07T11:34:19.881Z,28.22
2018-07-07T11:35:20.069Z,28.05
2018-07-07T11:36:20.323Z,27.87
2018-07-07T11:37:20.426Z,27.96
2018-07-07T11:38:20.607Z,28.00
2018-07-07T11:39:20.789Z,28.19
2018-07-07T11:40:20.966Z,28.07
2018-07-07T11:41:21.145Z,28.14
2018-07-07T11:42:21.356Z,28.02
2018-07-07T11:43:21.513Z,28.12
2018-07-07T11:44:21.699Z,28.07
2018-07-07T11:45:21.872Z,28.12
2018-07-07T11:46:22.038Z,28.11
2018-07-07T11:47:22.251Z,27.86
2018-07-07T11:48:22.428Z,27.87
2018-07-07T11:49:22.620Z,28.05
2018-07-07T11:50:22.879Z,28.22
2018-07-07T11:51:22.969Z,28.22
2018-07-07T11:52:23.163Z,28.25
2018-07-07T11:53:23.389Z,28.37
2018-07-07T11:54:23.497Z,28.17
2018-07-07T11:55:23.690Z,28.41
2018-07-07T11:56:24.360Z,28.33
2018-07-07T11:57:24.069Z,28.26
2018-07-07T11:58:24.249Z,28.15
2018-07-07T11:59:24.420Z,27.95
2018-07-07T12:00:24.678Z,27.73
2018-07-07T12:01:24.859Z,27.73
2018-07-07T12:02:25.044Z,27.59
2018-07-07T12:03:25.207Z,27.65
2018-07-07T12:04:25.473Z,27.82
2018-07-07T12:05:25.568Z,27.73
2018-07-07T12:06:25.771Z,27.45
2018-07-07T12:07:25.937Z,27.48
2018-07-07T12:08:26.232Z,27.44
2018-07-07T12:09:26.313Z,27.44
2018-07-07T12:10:26.539Z,27.54
2018-07-07T12:11:26.746Z,27.67
2018-07-07T12:12:26.871Z,27.75
2018-07-07T12:13:27.046Z,27.42
2018-07-07T12:14:27.230Z,27.54
2018-07-07T12:15:27.415Z,27.55
2018-07-07T12:16:27.591Z,27.60
2018-07-07T12:17:27.812Z,27.78
2018-07-07T12:18:27.952Z,27.93
2018-07-07T12:19:28.127Z,28.12
2018-07-07T12:20:28.328Z,28.12
2018-07-07T12:21:28.729Z,28.27
2018-07-07T12:22:28.680Z,28.11
2018-07-07T12:23:28.854Z,27.95
2018-07-07T12:24:29.046Z,28.02
2018-07-07T12:25:29.199Z,28.25
2018-07-07T12:26:29.410Z,28.15
2018-07-07T12:27:29.578Z,28.32
2018-07-07T12:28:29.744Z,28.11
2018-07-07T12:29:29.930Z,28.14
2018-07-07T12:30:30.105Z,28.30
2018-07-07T12:31:30.285Z,28.47
2018-07-07T12:32:30.463Z,28.26
2018-07-07T12:33:30.652Z,28.17
2018-07-07T12:34:30.831Z,28.11
2018-07-07T12:35:31.002Z,27.78
2018-07-07T12:36:31.199Z,27.00
2018-07-07T12:37:31.358Z,27.00
2018-07-07T12:38:31.555Z,27.00
2018-07-07T12:39:31.754Z,26.84
2018-07-07T12:40:31.944Z,27.12
2018-07-07T12:41:32.126Z,27.47
2018-07-07T12:42:32.302Z,27.70
2018-07-07T12:43:32.504Z,27.78
2018-07-07T12:44:32.670Z,27.78
2018-07-07T12:45:32.858Z,27.92
2018-07-07T12:46:33.040Z,27.95
2018-07-07T12:47:33.220Z,27.87
2018-07-07T12:48:33.417Z,27.98
2018-07-07T12:49:33.577Z,28.04
2018-07-07T12:50:33.762Z,28.32
2018-07-07T12:51:33.957Z,28.30
2018-07-07T12:52:34.144Z,28.39
2018-07-07T12:53:34.318Z,28.20
2018-07-07T12:54:34.487Z,28.14
2018-07-07T12:55:34.661Z,28.15
2018-07-07T12:56:34.851Z,28.26
2018-07-07T12:57:35.007Z,28.00
2018-07-07T12:58:35.197Z,28.05